Time;durP1;ratioP1;P1;durP2;ratioP2;P2;SDS_P1;SDS_P2;PMS_P1;PMS_P2;Temp;Humidity;BMP_temperature;BMP_pressure;BME280_temperature;BME280_humidity;BME280_pressure;Samples;Min_cycle;Max_cycle;Signal;HPM_P1;HPM_P2
2022/11/05 00:20:32;;;;;;;31.40;15.88;;;;;;;;;;10372732;22;20027;-87
2022/11/05 00:28:55;;;;;;;32.88;16.95;;;;;;;;;;10396656;22;20412;-90
2022/11/05 00:33:03;;;;;;;33.08;15.70;;;;;;;;;;10387572;22;20015;-90
2022/11/05 00:37:05;;;;;;;30.60;15.63;;;;;;;;;;10404519;22;20016;-90
2022/11/05 00:41:08;;;;;;;27.30;15.00;;;;;;;;;;10387587;22;20019;-88
2022/11/05 00:45:09;;;;;;;30.30;16.00;;;;;;;;;;10386913;22;20027;-87
2022/11/05 00:49:31;;;;;;;32.38;16.38;;;;;;;;;;10386691;22;20023;-87
2022/11/05 00:53:34;;;;;;;30.90;14.88;;;;;;;;;;10404065;22;20511;-89
2022/11/05 00:57:37;;;;;;;31.33;16.75;;;;;;;;;;10387799;22;20016;-90
2022/11/05 01:01:39;;;;;;;30.05;16.00;;;;;;;;;;10388096;22;20027;-89
2022/11/05 01:05:46;;;;;;;30.60;16.40;;;;;;;;;;10387766;22;20486;-87
2022/11/05 01:09:48;;;;;;;33.05;16.70;;;;;;;;;;10404679;22;20015;-89
2022/11/05 01:13:50;;;;;;;31.13;16.27;;;;;;;;;;10387171;22;20027;-89
2022/11/05 01:17:53;;;;;;;33.15;17.45;;;;;;;;;;10387232;22;20095;-88
2022/11/05 01:21:57;;;;;;;33.47;17.17;;;;;;;;;;10387532;22;20016;-91
2022/11/05 01:25:59;;;;;;;29.08;15.70;;;;;;;;;;10386631;22;20102;-91
2022/11/05 01:30:02;;;;;;;29.10;15.63;;;;;;;;;;10387444;22;20027;-86
2022/11/05 01:34:04;;;;;;;30.67;15.40;;;;;;;;;;10387866;22;20091;-88
2022/11/05 01:38:08;;;;;;;31.95;17.48;;;;;;;;;;10387971;22;20027;-88
2022/11/05 01:42:19;;;;;;;40.75;16.58;;;;;;;;;;10387955;22;20019;-88
2022/11/05 01:46:26;;;;;;;33.72;16.55;;;;;;;;;;10404645;22;20019;-88
2022/11/05 01:50:37;;;;;;;39.17;16.50;;;;;;;;;;10404842;22;20016;-86
2022/11/05 01:54:41;;;;;;;32.25;17.73;;;;;;;;;;10404520;22;20020;-86
2022/11/05 01:58:48;;;;;;;35.13;18.70;;;;;;;;;;10387483;22;20024;-90
2022/11/05 02:02:51;;;;;;;35.38;18.65;;;;;;;;;;10405777;22;20081;-86
2022/11/05 02:06:53;;;;;;;33.88;17.33;;;;;;;;;;10390696;22;20047;-86
2022/11/05 02:10:58;;;;;;;36.72;18.95;;;;;;;;;;10390761;22;20344;-89
2022/11/05 02:15:00;;;;;;;35.70;19.25;;;;;;;;;;10390338;22;20016;-86
2022/11/05 02:19:25;;;;;;;44.70;20.45;;;;;;;;;;10390788;22;20028;-88
2022/11/05 02:24:05;;;;;;;41.35;20.23;;;;;;;;;;10390223;22;20045;-89
2022/11/05 02:28:30;;;;;;;39.92;21.35;;;;;;;;;;10406188;22;20313;-89
2022/11/05 02:32:57;;;;;;;42.85;22.42;;;;;;;;;;10407315;22;20385;-88
2022/11/05 02:37:09;;;;;;;44.08;23.50;;;;;;;;;;10407323;22;20019;-87
2022/11/05 02:41:22;;;;;;;47.28;23.02;;;;;;;;;;10406973;22;20023;-87
2022/11/05 02:45:35;;;;;;;41.28;20.60;;;;;;;;;;10407040;22;20020;-89
2022/11/05 02:49:46;;;;;;;47.05;24.65;;;;;;;;;;10406931;22;20373;-90
2022/11/05 02:53:53;;;;;;;43.45;19.40;;;;;;;;;;10406814;22;20011;-86
2022/11/05 02:57:55;;;;;;;40.63;19.85;;;;;;;;;;10406594;22;20016;-87
2022/11/05 03:02:00;;;;;;;43.17;21.17;;;;;;;;;;10389807;22;20348;-87
2022/11/05 03:06:35;;;;;;;41.28;20.08;;;;;;;;;;10389639;22;20031;-87
2022/11/05 03:10:46;;;;;;;42.03;18.90;;;;;;;;;;10406785;22;20030;-86
2022/11/05 03:14:56;;;;;;;33.45;17.00;;;;;;;;;;10406374;22;20024;-87
2022/11/05 03:19:05;;;;;;;41.80;19.65;;;;;;;;;;10406514;22;20108;-88
2022/11/05 03:23:18;;;;;;;38.33;19.88;;;;;;;;;;10389537;22;20091;-90
2022/11/05 03:27:27;;;;;;;38.95;20.70;;;;;;;;;;10406257;22;20328;-87
2022/11/05 03:31:30;;;;;;;43.10;21.00;;;;;;;;;;10391039;22;20022;-88
2022/11/05 03:35:38;;;;;;;39.80;20.35;;;;;;;;;;10389278;22;20024;-88
2022/11/05 03:39:46;;;;;;;46.47;24.65;;;;;;;;;;10406254;22;20422;-88
2022/11/05 03:43:52;;;;;;;45.28;23.70;;;;;;;;;;10406217;22;20023;-87
2022/11/05 03:47:58;;;;;;;44.22;22.67;;;;;;;;;;10406096;22;20023;-86
2022/11/05 03:52:06;;;;;;;49.95;25.00;;;;;;;;;;10405950;22;20348;-86
2022/11/05 03:56:17;;;;;;;41.65;23.50;;;;;;;;;;10405835;22;20019;-88
2022/11/05 04:00:21;;;;;;;38.75;19.48;;;;;;;;;;10405595;22;20444;-90
2022/11/05 04:04:23;;;;;;;46.40;21.23;;;;;;;;;;10389223;22;20095;-87
2022/11/05 04:17:08;;;;;;;41.90;20.97;;;;;;;;;;10388883;22;20016;-86
2022/11/05 04:25:31;;;;;;;37.45;20.30;;;;;;;;;;10404943;22;20038;-87
2022/11/05 04:33:57;;;;;;;39.17;20.27;;;;;;;;;;10337487;22;20026;-90
2022/11/05 04:38:00;;;;;;;39.88;20.55;;;;;;;;;;10388699;22;20019;-86
2022/11/05 04:42:03;;;;;;;42.40;20.55;;;;;;;;;;10388173;22;20026;-87
2022/11/05 04:46:07;;;;;;;40.47;20.63;;;;;;;;;;10388468;22;20078;-86
2022/11/05 04:50:12;;;;;;;39.03;19.42;;;;;;;;;;10361648;22;20087;-88
2022/11/05 04:54:15;;;;;;;44.38;19.52;;;;;;;;;;10388317;22;20094;-87
2022/11/05 04:58:18;;;;;;;41.72;20.00;;;;;;;;;;10387536;22;20436;-87
2022/11/05 05:02:21;;;;;;;41.13;21.30;;;;;;;;;;10388499;22;20020;-88
2022/11/05 05:06:24;;;;;;;39.88;21.25;;;;;;;;;;10388215;22;20019;-86
2022/11/05 05:10:26;;;;;;;39.88;19.27;;;;;;;;;;10388516;22;20020;-87
2022/11/05 05:14:29;;;;;;;43.30;21.30;;;;;;;;;;10387584;22;20026;-88
2022/11/05 05:18:33;;;;;;;40.75;20.80;;;;;;;;;;10388238;22;20480;-86
2022/11/05 05:22:35;;;;;;;39.53;20.88;;;;;;;;;;10387115;22;20050;-90
2022/11/05 05:26:39;;;;;;;41.83;21.17;;;;;;;;;;10387359;22;20043;-88
2022/11/05 05:30:42;;;;;;;42.47;22.90;;;;;;;;;;10387571;22;20022;-88
2022/11/05 05:34:46;;;;;;;50.65;25.73;;;;;;;;;;10387864;22;20023;-86
2022/11/05 05:38:49;;;;;;;46.38;25.00;;;;;;;;;;10388966;22;20019;-87
2022/11/05 05:42:54;;;;;;;48.97;24.02;;;;;;;;;;10391316;22;20436;-86
2022/11/05 05:46:56;;;;;;;46.22;22.23;;;;;;;;;;10406489;22;20045;-88
2022/11/05 05:51:03;;;;;;;42.83;21.17;;;;;;;;;;10389387;22;20358;-89
2022/11/05 05:55:06;;;;;;;44.95;24.17;;;;;;;;;;10405293;22;20015;-87
2022/11/05 05:59:09;;;;;;;54.33;28.38;;;;;;;;;;10388754;22;20085;-87
2022/11/05 06:03:12;;;;;;;40.55;19.58;;;;;;;;;;10388939;22;20178;-88
2022/11/05 06:07:16;;;;;;;45.95;26.60;;;;;;;;;;10388622;22;20027;-90
2022/11/05 06:11:18;;;;;;;47.33;24.55;;;;;;;;;;10388658;22;20016;-87
2022/11/05 06:15:21;;;;;;;39.00;21.05;;;;;;;;;;10388545;22;20099;-89
2022/11/05 06:19:23;;;;;;;34.15;18.30;;;;;;;;;;10388382;22;20027;-91
2022/11/05 06:23:27;;;;;;;30.08;17.08;;;;;;;;;;10388598;22;20020;-90
2022/11/05 06:27:31;;;;;;;24.13;14.90;;;;;;;;;;10388218;22;20061;-87
2022/11/05 06:31:33;;;;;;;28.63;15.57;;;;;;;;;;10388298;22;20019;-87
2022/11/05 06:35:39;;;;;;;26.50;15.52;;;;;;;;;;10387724;22;20020;-87
2022/11/05 06:39:43;;;;;;;23.27;13.65;;;;;;;;;;10405068;22;20016;-89
2022/11/05 06:43:46;;;;;;;25.52;14.40;;;;;;;;;;10387679;22;20020;-85
2022/11/05 06:47:48;;;;;;;23.73;14.18;;;;;;;;;;10389379;22;20015;-88
2022/11/05 06:51:51;;;;;;;20.85;12.68;;;;;;;;;;10385899;22;20023;-90
2022/11/05 06:55:54;;;;;;;23.30;12.88;;;;;;;;;;10390231;22;20035;-87
2022/11/05 06:59:57;;;;;;;20.27;12.23;;;;;;;;;;10384689;22;20020;-88
2022/11/05 07:03:59;;;;;;;31.65;18.55;;;;;;;;;;10385059;22;20024;-87
2022/11/05 07:08:03;;;;;;;27.83;15.57;;;;;;;;;;10384966;22;20355;-87
2022/11/05 07:12:08;;;;;;;23.27;13.20;;;;;;;;;;10357827;22;20024;-85
2022/11/05 07:16:13;;;;;;;24.00;13.15;;;;;;;;;;10360007;22;20030;-87
2022/11/05 07:20:16;;;;;;;32.55;20.45;;;;;;;;;;10362282;22;20097;-87
2022/11/05 07:24:22;;;;;;;23.33;12.63;;;;;;;;;;10357999;22;20050;-86
2022/11/05 07:28:26;;;;;;;20.98;11.93;;;;;;;;;;10388159;22;20627;-88
2022/11/05 07:32:29;;;;;;;22.63;12.55;;;;;;;;;;10388494;22;20488;-86
2022/11/05 08:16:29;;;;;;;28.17;14.10;;;;;;;;;;10287730;23;20047;-86
2022/11/05 08:20:33;;;;;;;26.95;13.73;;;;;;;;;;10303566;23;20437;-84
2022/11/05 08:24:35;;;;;;;27.65;14.88;;;;;;;;;;10286025;23;20433;-89
2022/11/05 08:28:38;;;;;;;28.38;14.68;;;;;;;;;;10285989;23;20016;-86
2022/11/05 08:32:44;;;;;;;25.60;12.98;;;;;;;;;;10285431;23;20032;-87
2022/11/05 08:36:47;;;;;;;28.45;15.82;;;;;;;;;;10302451;23;20067;-87
2022/11/05 09:02:04;;;;;;;24.17;12.77;;;;;;;;;;10020746;23;20125;-86
2022/11/05 09:06:08;;;;;;;31.25;14.65;;;;;;;;;;10293266;23;20028;-88
2022/11/05 09:10:11;;;;;;;29.52;15.05;;;;;;;;;;10317517;23;20072;-88
2022/11/05 09:14:13;;;;;;;31.52;16.83;;;;;;;;;;10303687;23;20016;-86
2022/11/05 09:18:20;;;;;;;31.90;14.98;;;;;;;;;;10304149;23;20016;-86
2022/11/05 12:41:02;;;;;;;47.05;22.25;;;;;;;;;;10286308;23;20399;-88
2022/11/05 12:45:18;;;;;;;41.70;18.92;;;;;;;;;;10305651;23;20047;-90
2022/11/05 12:49:45;;;;;;;50.75;20.65;;;;;;;;;;10303366;23;20024;-87
2022/11/05 12:53:59;;;;;;;59.80;25.45;;;;;;;;;;10304984;23;20020;-90
2022/11/05 12:58:10;;;;;;;53.22;22.65;;;;;;;;;;10306614;23;20021;-88
2022/11/05 13:02:21;;;;;;;48.40;22.70;;;;;;;;;;10305674;23;20023;-87
2022/11/05 13:06:30;;;;;;;47.85;21.65;;;;;;;;;;10286603;23;20020;-88
2022/11/05 13:10:41;;;;;;;40.20;20.13;;;;;;;;;;10283603;23;20032;-90
2022/11/05 13:14:51;;;;;;;48.30;22.00;;;;;;;;;;10286300;23;20025;-89
2022/11/05 13:18:59;;;;;;;50.47;21.77;;;;;;;;;;10281576;23;20830;-88
2022/11/05 13:23:09;;;;;;;48.90;21.75;;;;;;;;;;10284223;23;20099;-89
2022/11/05 13:27:43;;;;;;;42.72;19.20;;;;;;;;;;10283855;23;20024;-90
2022/11/05 14:07:44;;;;;;;53.15;22.40;;;;;;;;;;10334414;22;20016;-88
2022/11/05 14:50:18;;;;;;;51.65;23.35;;;;;;;;;;10286547;23;20078;-89
2022/11/05 15:15:00;;;;;;;54.80;25.63;;;;;;;;;;10338761;22;20297;-87
2022/11/05 15:19:06;;;;;;;47.97;23.63;;;;;;;;;;10346001;23;20085;-88
2022/11/05 15:41:23;;;;;;;65.88;30.58;;;;;;;;;;10337817;22;20352;-89
2022/11/05 16:44:56;;;;;;;66.82;34.83;;;;;;;;;;10260803;22;20030;-90
2022/11/05 19:34:59;;;;;;;46.97;24.98;;;;;;;;;;10337310;22;20020;-86
2022/11/05 19:39:07;;;;;;;48.05;22.73;;;;;;;;;;10337661;23;20357;-91
2022/11/05 19:43:11;;;;;;;36.72;17.10;;;;;;;;;;10311937;23;20456;-92
2022/11/05 19:47:17;;;;;;;140.45;43.75;;;;;;;;;;10311635;23;20099;-86
2022/11/05 19:51:26;;;;;;;69.68;27.27;;;;;;;;;;10311685;23;20024;-86
2022/11/05 19:55:32;;;;;;;122.43;43.63;;;;;;;;;;10310879;23;20074;-87
2022/11/05 19:59:35;;;;;;;32.78;16.48;;;;;;;;;;10310940;23;20031;-88
2022/11/05 20:03:40;;;;;;;33.33;16.13;;;;;;;;;;10310751;23;20031;-87
2022/11/05 20:07:47;;;;;;;137.25;40.03;;;;;;;;;;10311605;23;20020;-87
2022/11/05 20:11:53;;;;;;;36.40;17.05;;;;;;;;;;10311000;23;20043;-87
2022/11/05 20:15:58;;;;;;;58.75;22.27;;;;;;;;;;10311023;23;20020;-86
2022/11/05 20:20:04;;;;;;;58.65;21.95;;;;;;;;;;10311352;23;20070;-87
2022/11/05 20:24:13;;;;;;;38.60;14.25;;;;;;;;;;10311362;23;20024;-87
2022/11/05 20:28:19;;;;;;;75.78;24.42;;;;;;;;;;10311160;23;20040;-87
2022/11/05 20:32:22;;;;;;;32.80;15.55;;;;;;;;;;10310887;23;20023;-87
2022/11/05 20:36:29;;;;;;;34.78;14.45;;;;;;;;;;10311188;23;20024;-88
2022/11/05 21:19:07;;;;;;;60.53;23.87;;;;;;;;;;10339410;23;20078;-88
2022/11/05 21:23:13;;;;;;;198.95;63.15;;;;;;;;;;10340528;23;20255;-91
2022/11/05 21:27:18;;;;;;;47.30;20.77;;;;;;;;;;10313981;23;20024;-86
2022/11/05 21:31:23;;;;;;;57.15;23.00;;;;;;;;;;10357327;23;20047;-87
2022/11/05 21:35:32;;;;;;;193.95;65.68;;;;;;;;;;10314382;23;20024;-86
2022/11/05 21:39:35;;;;;;;83.82;35.17;;;;;;;;;;10315235;23;20024;-86
2022/11/05 21:43:40;;;;;;;35.97;16.58;;;;;;;;;;10357655;23;20099;-87
2022/11/05 21:47:46;;;;;;;41.75;20.08;;;;;;;;;;10313457;23;20020;-87
2022/11/05 22:00:38;;;;;;;49.63;21.60;;;;;;;;;;10313221;23;20457;-87
2022/11/05 22:04:45;;;;;;;39.67;18.05;;;;;;;;;;10339988;23;20437;-89
2022/11/05 22:08:51;;;;;;;46.20;20.85;;;;;;;;;;10313616;23;20440;-87
2022/11/05 22:12:54;;;;;;;39.22;19.50;;;;;;;;;;10313450;23;20470;-86
2022/11/05 22:16:59;;;;;;;45.55;20.88;;;;;;;;;;10312447;23;20020;-86
2022/11/05 22:21:05;;;;;;;39.08;18.95;;;;;;;;;;10312186;23;20027;-87
2022/11/05 22:25:12;;;;;;;48.90;20.20;;;;;;;;;;10313033;23;20027;-87
2022/11/05 22:29:16;;;;;;;43.30;19.20;;;;;;;;;;10312997;23;20031;-87
2022/11/05 22:33:21;;;;;;;43.08;18.55;;;;;;;;;;10312447;23;20024;-86
2022/11/05 22:37:26;;;;;;;40.85;17.33;;;;;;;;;;10312509;23;20031;-86
